createdAt,value
2023-03-29T00:00:15.479Z,154.08
2023-03-29T00:01:35.857Z,153.19
2023-03-29T00:02:16.579Z,153.52
2023-03-29T00:03:15.616Z,153.55
2023-03-29T00:04:15.589Z,156.62
2023-03-29T00:05:15.506Z,152.62
2023-03-29T00:06:15.514Z,151.08
2023-03-29T00:07:15.505Z,144.06
2023-03-29T00:08:15.507Z,143.05
2023-03-29T00:09:15.493Z,144.14
2023-03-29T00:10:15.486Z,149.65
2023-03-29T00:11:15.557Z,150.70
2023-03-29T00:12:15.624Z,153.95
2023-03-29T00:13:15.779Z,147.94
2023-03-29T00:14:15.747Z,153.42
2023-03-29T00:15:15.803Z,150.72
2023-03-29T00:16:15.903Z,159.70
2023-03-29T00:17:15.917Z,168.10
2023-03-29T00:18:15.998Z,162.73
2023-03-29T00:19:16.015Z,163.37
2023-03-29T00:20:16.082Z,160.44
2023-03-29T00:21:16.136Z,154.11
2023-03-29T00:22:16.190Z,156.29
2023-03-29T00:23:16.246Z,151.29
2023-03-29T00:24:16.304Z,141.74
2023-03-29T00:25:16.386Z,146.71
2023-03-29T00:26:16.469Z,150.07
2023-03-29T00:27:16.515Z,147.63
2023-03-29T00:28:16.540Z,146.29
2023-03-29T00:29:16.647Z,142.52
2023-03-29T00:30:16.702Z,135.53
2023-03-29T00:31:16.791Z,137.01
2023-03-29T00:32:16.824Z,143.69
2023-03-29T00:33:16.854Z,135.84
2023-03-29T00:34:16.921Z,135.73
2023-03-29T00:35:16.983Z,138.84
2023-03-29T00:36:17.043Z,141.61
2023-03-29T00:37:17.112Z,140.73
2023-03-29T00:38:17.157Z,138.51
2023-03-29T00:39:17.221Z,139.59
2023-03-29T00:40:17.309Z,143.55
2023-03-29T00:41:17.354Z,133.90
2023-03-29T00:42:17.424Z,123.90
2023-03-29T00:43:17.458Z,139.00
2023-03-29T00:44:17.548Z,143.14
2023-03-29T00:45:17.593Z,141.29
2023-03-29T00:46:17.693Z,146.98
2023-03-29T00:47:17.706Z,153.65
2023-03-29T00:48:17.746Z,148.18
2023-03-29T00:49:17.809Z,141.09
2023-03-29T00:50:17.876Z,140.75
2023-03-29T00:51:17.965Z,146.59
2023-03-29T00:52:18.021Z,147.58
2023-03-29T00:53:18.060Z,141.73
2023-03-29T00:54:18.113Z,149.33
2023-03-29T00:55:18.204Z,139.53
2023-03-29T00:56:18.255Z,147.60
2023-03-29T00:57:18.373Z,153.29
2023-03-29T00:58:18.355Z,147.40
2023-03-29T00:59:18.425Z,149.67
2023-03-29T01:00:18.468Z,143.03
2023-03-29T01:01:18.638Z,141.55
2023-03-29T01:02:18.605Z,148.08
2023-03-29T01:03:18.688Z,143.25
2023-03-29T01:04:18.726Z,150.18
2023-03-29T01:05:18.741Z,149.75
2023-03-29T01:06:18.828Z,150.21
2023-03-29T01:07:18.909Z,154.38
2023-03-29T01:08:18.929Z,153.01
2023-03-29T01:09:18.966Z,154.58
2023-03-29T01:10:19.036Z,153.78
2023-03-29T01:11:19.217Z,156.79
2023-03-29T01:12:19.171Z,161.59
2023-03-29T01:13:19.238Z,160.84
2023-03-29T01:14:19.289Z,163.00
2023-03-29T01:15:19.345Z,163.89
2023-03-29T01:16:19.444Z,166.62
2023-03-29T01:17:19.447Z,170.26
2023-03-29T01:18:19.479Z,168.29
2023-03-29T01:19:19.531Z,165.32
2023-03-29T01:20:19.594Z,168.76
2023-03-29T01:21:19.657Z,161.97
2023-03-29T01:22:19.714Z,157.27
2023-03-29T01:23:19.778Z,149.79
2023-03-29T01:24:19.855Z,157.36
2023-03-29T01:25:19.910Z,144.86
2023-03-29T01:26:19.980Z,134.66
2023-03-29T01:27:20.031Z,136.02
2023-03-29T01:28:20.122Z,134.65
2023-03-29T01:29:20.164Z,145.05
2023-03-29T01:30:20.230Z,146.21
2023-03-29T01:31:20.313Z,146.48
2023-03-29T01:32:20.408Z,145.42
2023-03-29T01:33:20.589Z,138.62
2023-03-29T01:34:20.759Z,152.30
2023-03-29T01:35:20.995Z,144.85
2023-03-29T01:36:21.223Z,147.78
2023-03-29T01:37:21.349Z,137.37
2023-03-29T01:38:21.536Z,136.51
2023-03-29T01:39:21.774Z,134.91
2023-03-29T01:40:21.969Z,142.65
2023-03-29T01:41:22.152Z,146.67
2023-03-29T01:42:22.372Z,148.27
2023-03-29T01:43:22.568Z,149.74
2023-03-29T01:44:22.762Z,142.19
2023-03-29T01:45:22.982Z,153.12
2023-03-29T01:46:23.155Z,150.97
2023-03-29T01:47:23.353Z,149.26
2023-03-29T01:48:23.486Z,142.46
2023-03-29T01:49:23.624Z,141.63
2023-03-29T01:50:23.733Z,147.56
2023-03-29T01:51:24.001Z,145.46
2023-03-29T01:52:24.216Z,141.19
2023-03-29T01:53:24.407Z,149.08
2023-03-29T01:54:24.580Z,146.03
2023-03-29T01:55:24.778Z,152.69
2023-03-29T01:56:24.977Z,151.46
2023-03-29T01:57:25.370Z,145.60
2023-03-29T01:58:25.411Z,129.08
2023-03-29T01:59:25.606Z,135.01
2023-03-29T02:00:25.852Z,135.37
2023-03-29T02:01:26.105Z,138.74
2023-03-29T02:02:26.412Z,141.01
2023-03-29T02:03:26.396Z,138.09
2023-03-29T02:04:26.317Z,138.64
2023-03-29T02:05:26.311Z,137.73
2023-03-29T02:06:26.297Z,129.88
2023-03-29T02:07:26.280Z,130.95
2023-03-29T02:08:26.308Z,138.55
2023-03-29T02:09:26.353Z,147.08
2023-03-29T02:10:26.344Z,159.22
2023-03-29T02:11:26.332Z,155.31
2023-03-29T02:12:26.348Z,158.24
2023-03-29T02:13:26.316Z,147.60
2023-03-29T02:14:26.305Z,142.20
2023-03-29T02:15:26.369Z,135.70
2023-03-29T02:16:26.289Z,132.18
2023-03-29T02:17:26.366Z,130.22
2023-03-29T02:18:26.290Z,133.72
2023-03-29T02:19:26.267Z,136.82
2023-03-29T02:20:26.260Z,142.49
2023-03-29T02:21:26.272Z,130.24
2023-03-29T02:22:26.260Z,124.92
2023-03-29T02:23:26.263Z,126.49
2023-03-29T02:24:26.261Z,135.17
2023-03-29T02:25:26.260Z,139.77
2023-03-29T02:26:26.265Z,144.23
2023-03-29T02:27:26.234Z,150.33
2023-03-29T02:28:26.215Z,134.55
2023-03-29T02:29:26.241Z,135.67
2023-03-29T02:30:26.195Z,135.65
2023-03-29T02:31:26.252Z,132.66
2023-03-29T02:32:26.249Z,125.01
2023-03-29T02:33:26.173Z,133.05
2023-03-29T02:34:26.205Z,146.58
2023-03-29T02:35:26.160Z,139.02
2023-03-29T02:36:26.151Z,139.79
2023-03-29T02:37:26.142Z,145.59
2023-03-29T02:38:26.153Z,149.28
2023-03-29T02:39:26.127Z,151.57
2023-03-29T02:40:26.160Z,149.44
2023-03-29T02:41:26.153Z,151.02
2023-03-29T02:42:26.120Z,153.59
2023-03-29T02:43:26.231Z,150.27
2023-03-29T02:44:26.095Z,147.41
2023-03-29T02:45:26.087Z,141.78
2023-03-29T02:46:26.144Z,138.00
2023-03-29T02:47:26.115Z,141.09
2023-03-29T02:48:26.071Z,142.09
2023-03-29T02:49:26.104Z,142.37
2023-03-29T02:50:26.158Z,141.72
2023-03-29T02:51:26.196Z,134.73
2023-03-29T02:52:26.264Z,135.15
2023-03-29T02:53:26.350Z,150.56
2023-03-29T02:54:26.403Z,150.23
2023-03-29T02:55:26.446Z,156.56
2023-03-29T02:56:26.523Z,152.13
2023-03-29T02:57:26.822Z,145.54
2023-03-29T02:58:26.687Z,152.20
2023-03-29T02:59:26.642Z,152.99
2023-03-29T03:00:26.698Z,154.44
2023-03-29T03:01:26.759Z,156.57
2023-03-29T03:02:26.794Z,162.75
2023-03-29T03:03:26.879Z,165.17
2023-03-29T03:04:26.864Z,171.99
2023-03-29T03:05:26.944Z,171.06
2023-03-29T03:06:26.961Z,173.79
2023-03-29T03:07:27.065Z,172.92
2023-03-29T03:08:27.103Z,173.21
2023-03-29T03:09:27.139Z,172.17
2023-03-29T03:10:27.188Z,176.09
2023-03-29T03:11:27.244Z,177.81
2023-03-29T03:12:27.253Z,163.16
2023-03-29T03:13:27.414Z,166.71
2023-03-29T03:14:27.581Z,164.09
2023-03-29T03:15:27.743Z,160.45
2023-03-29T03:16:28.076Z,169.53
2023-03-29T03:17:28.097Z,164.45
2023-03-29T03:18:28.062Z,158.21
2023-03-29T03:19:28.064Z,158.97
2023-03-29T03:20:28.047Z,159.09
2023-03-29T03:21:28.048Z,167.68
2023-03-29T03:22:28.026Z,173.12
2023-03-29T03:23:28.009Z,180.52
2023-03-29T03:24:28.017Z,183.31
2023-03-29T03:25:28.006Z,180.13
2023-03-29T03:26:27.978Z,178.20
2023-03-29T03:27:27.970Z,181.22
2023-03-29T03:28:27.996Z,171.66
2023-03-29T03:29:27.983Z,162.46
2023-03-29T03:30:27.946Z,166.58
2023-03-29T03:31:28.005Z,164.68
2023-03-29T03:32:27.969Z,164.14
2023-03-29T03:33:27.959Z,174.34
2023-03-29T03:34:27.945Z,182.49
2023-03-29T03:35:27.959Z,185.21
2023-03-29T03:36:27.930Z,180.44
2023-03-29T03:37:27.915Z,177.13
2023-03-29T03:38:27.915Z,174.40
2023-03-29T03:39:27.891Z,173.78
2023-03-29T03:40:28.403Z,169.26
2023-03-29T03:41:27.874Z,163.34
2023-03-29T03:42:27.872Z,164.19
2023-03-29T03:43:27.904Z,168.15
2023-03-29T03:44:27.874Z,177.85
2023-03-29T03:45:27.867Z,176.28
2023-03-29T03:46:29.605Z,179.51
2023-03-29T03:47:27.902Z,179.07
2023-03-29T03:48:27.835Z,180.11
2023-03-29T03:49:27.819Z,182.74
2023-03-29T03:50:27.849Z,178.15
2023-03-29T03:51:27.824Z,172.22
2023-03-29T03:52:27.824Z,178.78
2023-03-29T03:53:27.805Z,176.99
2023-03-29T03:54:27.865Z,176.07
2023-03-29T03:55:27.918Z,178.67
2023-03-29T03:56:27.951Z,178.46
2023-03-29T03:57:27.996Z,179.70
2023-03-29T03:58:28.074Z,181.37
2023-03-29T03:59:28.114Z,170.55
2023-03-29T04:00:28.187Z,172.43
2023-03-29T04:01:28.251Z,176.67
2023-03-29T04:02:28.384Z,177.27
2023-03-29T04:03:28.413Z,180.71
2023-03-29T04:04:28.436Z,177.67
2023-03-29T04:05:28.432Z,175.78
2023-03-29T04:06:28.464Z,174.87
2023-03-29T04:07:28.512Z,170.44
2023-03-29T04:08:28.566Z,169.52
2023-03-29T04:09:28.612Z,168.61
2023-03-29T04:10:28.668Z,162.76
2023-03-29T04:11:28.712Z,158.90
2023-03-29T04:12:28.722Z,163.63
2023-03-29T04:13:28.770Z,169.70
2023-03-29T04:14:28.801Z,168.27
2023-03-29T04:15:28.871Z,164.70
2023-03-29T04:16:28.912Z,164.43
2023-03-29T04:17:28.990Z,165.28
2023-03-29T04:18:29.073Z,171.76
2023-03-29T04:19:29.067Z,173.44
2023-03-29T04:20:29.146Z,172.12
2023-03-29T04:21:29.185Z,166.92
2023-03-29T04:22:29.239Z,164.58
2023-03-29T04:23:29.320Z,162.49
2023-03-29T04:24:29.376Z,164.75
2023-03-29T04:25:29.415Z,172.27
2023-03-29T04:26:29.486Z,179.28
2023-03-29T04:27:29.503Z,177.33
2023-03-29T04:28:29.525Z,172.01
2023-03-29T04:29:29.598Z,175.25
2023-03-29T04:30:29.634Z,171.08
2023-03-29T04:31:29.763Z,172.35
2023-03-29T04:32:29.760Z,179.88
2023-03-29T04:33:29.798Z,176.62
2023-03-29T04:34:29.835Z,172.70
2023-03-29T04:35:29.903Z,173.99
2023-03-29T04:36:29.933Z,174.34
2023-03-29T04:37:29.995Z,168.57
2023-03-29T04:38:30.070Z,162.34
2023-03-29T04:39:30.151Z,156.04
2023-03-29T04:40:30.186Z,162.52
2023-03-29T04:41:30.239Z,170.51
2023-03-29T04:42:30.301Z,168.10
2023-03-29T04:43:30.367Z,166.21
2023-03-29T04:44:30.448Z,164.23
2023-03-29T04:45:30.487Z,163.09
2023-03-29T04:46:30.705Z,166.50
2023-03-29T04:47:30.641Z,164.25
2023-03-29T04:48:30.647Z,167.45
2023-03-29T04:49:30.696Z,166.27
2023-03-29T04:50:30.745Z,162.57
2023-03-29T04:51:30.816Z,166.43
2023-03-29T04:52:30.900Z,176.14
2023-03-29T04:53:30.876Z,177.70
2023-03-29T04:54:30.948Z,179.99
2023-03-29T04:55:30.988Z,174.92
2023-03-29T04:56:31.053Z,173.07
2023-03-29T04:57:31.094Z,176.72
2023-03-29T04:58:32.482Z,180.85
2023-03-29T04:59:31.188Z,180.79
2023-03-29T05:00:31.251Z,178.56
2023-03-29T05:01:31.415Z,180.14
2023-03-29T05:02:31.369Z,181.21
2023-03-29T05:03:31.415Z,182.06
2023-03-29T05:04:31.566Z,186.17
2023-03-29T05:05:31.496Z,187.31
2023-03-29T05:06:31.546Z,190.03
2023-03-29T05:07:31.612Z,189.74
2023-03-29T05:08:31.679Z,189.44
2023-03-29T05:09:33.725Z,180.48
2023-03-29T05:10:31.749Z,176.32
2023-03-29T05:11:31.719Z,174.86
2023-03-29T05:12:31.700Z,178.59
2023-03-29T05:13:31.713Z,181.52
2023-03-29T05:14:31.697Z,180.76
2023-03-29T05:15:31.714Z,180.40
2023-03-29T05:16:31.741Z,177.10
2023-03-29T05:17:31.738Z,179.89
2023-03-29T05:18:31.701Z,180.31
2023-03-29T05:19:31.671Z,181.74
2023-03-29T05:20:31.667Z,178.77
2023-03-29T05:21:31.652Z,181.99
2023-03-29T05:22:31.650Z,182.45
2023-03-29T05:23:31.680Z,187.75
2023-03-29T05:24:31.628Z,186.04
2023-03-29T05:25:31.925Z,184.73
2023-03-29T05:26:31.627Z,184.53
2023-03-29T05:27:31.605Z,201.78
2023-03-29T05:28:31.601Z,212.71
2023-03-29T05:29:31.579Z,211.08
2023-03-29T05:30:31.586Z,209.02
2023-03-29T05:31:31.645Z,217.84
2023-03-29T05:32:31.576Z,244.32
2023-03-29T05:33:31.564Z,230.63
2023-03-29T05:34:31.587Z,231.94
2023-03-29T05:35:31.551Z,232.40
2023-03-29T05:36:31.534Z,237.46
2023-03-29T05:37:31.552Z,244.35
2023-03-29T05:38:31.520Z,244.66
2023-03-29T05:39:31.608Z,245.10
2023-03-29T05:40:31.630Z,249.53
2023-03-29T05:41:31.674Z,250.05
2023-03-29T05:42:31.681Z,250.00
2023-03-29T05:43:31.781Z,250.00
2023-03-29T05:44:31.840Z,249.87
2023-03-29T05:45:31.889Z,249.68
2023-03-29T05:46:31.869Z,249.69
2023-03-29T05:47:31.926Z,249.43
2023-03-29T05:48:31.946Z,250.00
2023-03-29T05:49:31.949Z,250.00
2023-03-29T05:50:32.004Z,250.00
2023-03-29T05:51:32.008Z,250.00
2023-03-29T05:52:32.043Z,249.24
2023-03-29T05:53:32.055Z,249.90
2023-03-29T05:54:32.104Z,249.53
2023-03-29T05:55:32.210Z,249.00
2023-03-29T05:56:32.183Z,248.80
2023-03-29T05:57:32.160Z,248.59
2023-03-29T05:58:32.176Z,247.45
2023-03-29T05:59:32.216Z,246.29
2023-03-29T06:00:32.259Z,244.11
2023-03-29T06:01:32.301Z,243.14
2023-03-29T06:02:32.367Z,242.73
2023-03-29T06:03:32.448Z,242.45
2023-03-29T06:04:32.436Z,241.51
2023-03-29T06:05:32.368Z,240.75
2023-03-29T06:06:32.409Z,238.77
2023-03-29T06:07:32.398Z,237.44
2023-03-29T06:08:32.413Z,237.26
2023-03-29T06:09:32.422Z,235.67
2023-03-29T06:10:32.440Z,234.48
2023-03-29T06:11:32.480Z,231.81
2023-03-29T06:12:32.511Z,229.81
2023-03-29T06:13:32.506Z,228.66
2023-03-29T06:14:32.526Z,227.97
2023-03-29T06:15:32.565Z,227.22
2023-03-29T06:16:32.662Z,229.48
2023-03-29T06:17:32.578Z,235.32
2023-03-29T06:18:32.577Z,239.15
2023-03-29T06:19:32.581Z,241.32
2023-03-29T06:20:32.613Z,241.25
2023-03-29T06:21:32.620Z,237.91
2023-03-29T06:22:32.622Z,236.80
2023-03-29T06:23:32.608Z,235.80
2023-03-29T06:24:32.644Z,235.51
2023-03-29T06:25:32.634Z,234.18
2023-03-29T06:26:32.664Z,234.26
2023-03-29T06:27:32.670Z,232.54
2023-03-29T06:28:32.678Z,231.83
2023-03-29T06:29:32.691Z,230.14
2023-03-29T06:30:32.709Z,229.55
2023-03-29T06:31:33.064Z,212.47
2023-03-29T06:32:32.747Z,199.41
2023-03-29T06:33:32.733Z,202.63
2023-03-29T06:34:32.810Z,207.60
2023-03-29T06:35:32.794Z,211.87
2023-03-29T06:36:32.775Z,211.72
2023-03-29T06:37:32.867Z,214.96
2023-03-29T06:38:32.799Z,222.14
2023-03-29T06:39:32.784Z,224.66
2023-03-29T06:40:33.492Z,228.68
2023-03-29T06:41:32.800Z,231.04
2023-03-29T06:42:32.803Z,229.57
2023-03-29T06:43:33.314Z,235.14
2023-03-29T06:44:32.861Z,236.90
2023-03-29T06:45:32.849Z,233.27
2023-03-29T06:46:33.022Z,237.11
2023-03-29T06:47:33.058Z,239.05
2023-03-29T06:48:32.976Z,240.76
2023-03-29T06:49:33.009Z,238.60
2023-03-29T06:50:33.080Z,242.21
2023-03-29T06:51:33.170Z,243.59
2023-03-29T06:52:33.483Z,244.16
2023-03-29T06:53:33.269Z,246.16
2023-03-29T06:54:33.365Z,246.72
2023-03-29T06:55:33.399Z,246.08
2023-03-29T06:56:33.442Z,246.54
2023-03-29T06:57:33.494Z,246.61
2023-03-29T06:58:33.501Z,247.82
2023-03-29T06:59:33.554Z,246.36
2023-03-29T07:00:33.618Z,242.26
2023-03-29T07:01:33.693Z,244.62
2023-03-29T07:02:34.148Z,244.70
2023-03-29T07:03:33.778Z,244.54
2023-03-29T07:04:33.899Z,246.43
2023-03-29T07:05:33.890Z,248.69
2023-03-29T07:06:33.962Z,250.00
2023-03-29T07:07:34.493Z,250.00
2023-03-29T07:08:34.051Z,249.47
2023-03-29T07:09:34.151Z,248.57
2023-03-29T07:10:34.197Z,247.89
2023-03-29T07:11:34.226Z,241.16
2023-03-29T07:12:34.308Z,242.78
2023-03-29T07:13:34.333Z,245.15
2023-03-29T07:14:34.346Z,242.30
2023-03-29T07:15:34.418Z,232.20
2023-03-29T07:16:34.480Z,235.24
2023-03-29T07:17:35.046Z,236.39
2023-03-29T07:18:34.548Z,234.19
2023-03-29T07:19:34.667Z,235.22
2023-03-29T07:20:34.680Z,233.57
2023-03-29T07:21:36.700Z,230.87
2023-03-29T07:22:34.739Z,228.49
2023-03-29T07:23:34.727Z,234.70
2023-03-29T07:24:34.726Z,233.66
2023-03-29T07:25:34.724Z,226.71
2023-03-29T07:26:34.755Z,222.62
2023-03-29T07:27:35.011Z,220.92
2023-03-29T07:28:35.009Z,224.47
2023-03-29T07:29:34.738Z,228.41
2023-03-29T07:30:35.908Z,230.92
2023-03-29T07:31:34.687Z,234.92
2023-03-29T07:32:34.767Z,230.89
2023-03-29T07:33:35.099Z,224.68
2023-03-29T07:34:34.676Z,211.61
2023-03-29T07:35:34.656Z,195.26
2023-03-29T07:36:34.681Z,179.62
2023-03-29T07:37:34.991Z,173.97
2023-03-29T07:38:34.708Z,172.47
2023-03-29T07:39:34.617Z,171.45
2023-03-29T07:40:34.607Z,171.02
2023-03-29T07:41:34.573Z,169.26
2023-03-29T07:42:34.576Z,169.67
2023-03-29T07:43:34.590Z,172.39
2023-03-29T07:44:34.576Z,182.48
2023-03-29T07:45:34.575Z,189.85
2023-03-29T07:46:34.612Z,202.50
2023-03-29T07:47:34.611Z,206.88
2023-03-29T07:48:34.537Z,209.48
2023-03-29T07:49:35.011Z,203.13
2023-03-29T07:50:34.527Z,194.37
2023-03-29T07:51:34.524Z,196.19
2023-03-29T07:52:34.495Z,191.16
2023-03-29T07:53:34.489Z,193.86
2023-03-29T07:54:34.484Z,194.66
2023-03-29T07:55:34.498Z,190.94
2023-03-29T07:56:34.467Z,185.79
2023-03-29T07:57:34.467Z,180.08
2023-03-29T07:58:34.451Z,179.40
2023-03-29T07:59:34.542Z,169.09
2023-03-29T08:00:34.548Z,170.01
2023-03-29T08:01:34.429Z,167.84
2023-03-29T08:02:34.445Z,169.99
2023-03-29T08:03:34.459Z,164.08
2023-03-29T08:04:34.548Z,151.83
2023-03-29T08:05:41.389Z,146.30
2023-03-29T08:06:35.392Z,144.29
2023-03-29T08:07:34.422Z,137.15
2023-03-29T08:08:34.403Z,137.77
2023-03-29T08:09:34.401Z,136.25
2023-03-29T08:10:34.402Z,126.38
2023-03-29T08:11:34.370Z,111.57
2023-03-29T08:12:34.373Z,98.93
2023-03-29T08:13:34.381Z,94.20
2023-03-29T08:14:34.366Z,85.61
2023-03-29T08:15:34.516Z,77.85
2023-03-29T08:16:34.439Z,87.71
2023-03-29T08:17:34.471Z,92.45
2023-03-29T08:18:35.005Z,107.64
2023-03-29T08:19:34.576Z,123.27
2023-03-29T08:20:35.025Z,131.89
2023-03-29T08:21:34.669Z,132.11
2023-03-29T08:22:34.717Z,146.42
2023-03-29T08:23:34.798Z,160.71
2023-03-29T08:24:34.763Z,170.31
2023-03-29T08:25:35.067Z,182.75
2023-03-29T08:26:34.824Z,197.50
2023-03-29T08:27:34.854Z,203.06
2023-03-29T08:28:34.836Z,208.54
2023-03-29T08:29:34.895Z,210.19
2023-03-29T08:30:35.002Z,215.65
2023-03-29T08:31:35.030Z,217.76
2023-03-29T08:32:35.021Z,216.36
2023-03-29T08:33:35.070Z,216.52
2023-03-29T08:34:35.126Z,225.86
2023-03-29T08:35:35.171Z,217.47
2023-03-29T08:36:35.205Z,214.65
2023-03-29T08:37:35.278Z,211.59
2023-03-29T08:38:35.526Z,210.83
2023-03-29T08:39:35.355Z,208.29
2023-03-29T08:40:35.417Z,210.88
2023-03-29T08:41:35.463Z,206.56
2023-03-29T08:42:35.501Z,189.68
2023-03-29T08:43:36.020Z,194.00
2023-03-29T08:44:35.589Z,197.40
2023-03-29T08:45:35.673Z,183.76
2023-03-29T08:46:35.964Z,178.20
2023-03-29T08:47:35.803Z,187.12
2023-03-29T08:48:35.835Z,184.69
2023-03-29T08:49:35.875Z,188.87
2023-03-29T08:50:35.935Z,193.27
2023-03-29T08:51:35.990Z,197.01
2023-03-29T08:52:36.026Z,198.96
2023-03-29T08:53:36.067Z,201.13
2023-03-29T08:54:36.928Z,200.45
2023-03-29T08:55:36.197Z,199.18
2023-03-29T08:56:36.258Z,198.73
2023-03-29T08:57:36.339Z,201.11
2023-03-29T08:58:36.392Z,202.48
2023-03-29T08:59:36.443Z,201.66
2023-03-29T09:00:36.506Z,201.79
2023-03-29T09:01:36.613Z,200.34
2023-03-29T09:02:36.748Z,199.82
2023-03-29T09:03:36.734Z,198.40
2023-03-29T09:04:36.733Z,198.33
2023-03-29T09:05:36.783Z,196.20
2023-03-29T09:06:36.885Z,194.31
2023-03-29T09:07:36.925Z,191.84
2023-03-29T09:08:37.064Z,191.15
2023-03-29T09:09:37.026Z,190.73
2023-03-29T09:10:37.100Z,191.55
2023-03-29T09:11:37.163Z,192.59
2023-03-29T09:12:37.924Z,193.54
2023-03-29T09:13:37.252Z,195.41
2023-03-29T09:14:37.331Z,190.75
2023-03-29T09:15:37.333Z,190.58
2023-03-29T09:16:37.599Z,175.68
2023-03-29T09:17:37.551Z,174.62
2023-03-29T09:18:37.551Z,175.52
2023-03-29T09:19:37.615Z,183.34
2023-03-29T09:20:37.628Z,190.60
2023-03-29T09:21:37.740Z,188.33
2023-03-29T09:22:38.033Z,184.43
2023-03-29T09:23:37.850Z,186.86
2023-03-29T09:24:37.893Z,188.82
2023-03-29T09:25:50.725Z,184.41
2023-03-29T09:26:38.951Z,184.54
2023-03-29T09:27:38.093Z,181.87
2023-03-29T09:28:37.989Z,164.04
2023-03-29T09:29:37.985Z,164.94
2023-03-29T09:30:37.917Z,164.18
2023-03-29T09:31:37.997Z,169.24
2023-03-29T09:32:38.111Z,178.53
2023-03-29T09:33:37.913Z,190.52
2023-03-29T09:34:37.946Z,195.51
2023-03-29T09:35:37.915Z,200.25
2023-03-29T09:36:38.008Z,200.93
2023-03-29T09:37:38.079Z,209.99
2023-03-29T09:38:38.092Z,210.65
2023-03-29T09:39:38.142Z,216.98
2023-03-29T09:40:38.179Z,222.12
2023-03-29T09:41:38.313Z,227.31
2023-03-29T09:42:38.242Z,229.28
2023-03-29T09:43:38.254Z,235.14
2023-03-29T09:44:38.286Z,239.55
2023-03-29T09:45:38.337Z,241.29
2023-03-29T09:46:38.308Z,244.60
2023-03-29T09:47:38.386Z,243.01
2023-03-29T09:48:38.562Z,231.68
2023-03-29T09:49:38.330Z,242.51
2023-03-29T09:50:38.294Z,244.39
2023-03-29T09:51:38.335Z,240.47
2023-03-29T09:52:38.361Z,244.38
2023-03-29T09:53:38.399Z,248.76
2023-03-29T09:54:38.462Z,250.00
2023-03-29T09:55:38.526Z,241.94
2023-03-29T09:56:43.961Z,249.87
2023-03-29T09:57:38.601Z,250.06
2023-03-29T09:58:38.987Z,250.69
2023-03-29T09:59:38.714Z,252.82
2023-03-29T10:00:38.725Z,256.06
2023-03-29T10:01:38.867Z,257.11
2023-03-29T10:02:38.835Z,248.78
2023-03-29T10:03:39.054Z,250.00
2023-03-29T10:04:39.092Z,251.89
2023-03-29T10:05:38.955Z,250.00
2023-03-29T10:06:38.996Z,231.82
2023-03-29T10:07:39.013Z,222.03
2023-03-29T10:08:39.088Z,195.68
2023-03-29T10:09:39.582Z,178.21
2023-03-29T10:10:39.183Z,165.88
2023-03-29T10:11:39.220Z,173.22
2023-03-29T10:12:39.246Z,163.93
2023-03-29T10:13:39.269Z,162.34
2023-03-29T10:14:39.275Z,168.61
2023-03-29T10:15:39.286Z,166.29
2023-03-29T10:16:39.317Z,167.96
2023-03-29T10:17:39.296Z,164.22
2023-03-29T10:18:39.318Z,160.08
2023-03-29T10:19:39.561Z,168.50
2023-03-29T10:20:39.389Z,165.55
2023-03-29T10:21:39.417Z,155.31
2023-03-29T10:22:39.424Z,150.92
2023-03-29T10:23:39.456Z,160.31
2023-03-29T10:24:39.567Z,162.30
2023-03-29T10:25:42.069Z,166.61
2023-03-29T10:26:39.501Z,157.19
2023-03-29T10:27:39.501Z,148.08
2023-03-29T10:28:39.474Z,122.55
2023-03-29T10:29:39.495Z,120.06
2023-03-29T10:30:39.469Z,100.67
2023-03-29T10:31:39.526Z,95.69
2023-03-29T10:32:39.475Z,92.26
2023-03-29T10:33:39.465Z,93.30
2023-03-29T10:34:39.464Z,79.88
2023-03-29T10:35:39.494Z,69.30
2023-03-29T10:36:39.427Z,62.07
2023-03-29T10:37:39.427Z,58.54
2023-03-29T10:38:39.437Z,52.11
2023-03-29T10:39:39.431Z,47.52
2023-03-29T10:40:39.399Z,45.77
2023-03-29T10:41:39.415Z,44.37
2023-03-29T10:42:39.379Z,56.80
2023-03-29T10:43:39.368Z,60.59
2023-03-29T10:44:39.390Z,64.44
2023-03-29T10:45:39.356Z,73.33
2023-03-29T10:46:39.390Z,75.17
2023-03-29T10:47:39.367Z,73.48
2023-03-29T10:48:39.332Z,80.39
2023-03-29T10:49:39.352Z,76.33
2023-03-29T10:50:39.342Z,63.05
2023-03-29T10:51:39.308Z,58.50
2023-03-29T10:52:39.322Z,50.11
2023-03-29T10:53:39.313Z,45.94
2023-03-29T10:54:39.315Z,27.94
2023-03-29T10:55:39.300Z,27.67
2023-03-29T10:56:39.367Z,26.32
2023-03-29T10:57:39.366Z,26.25
2023-03-29T10:58:39.282Z,27.70
2023-03-29T10:59:39.583Z,34.95
2023-03-29T11:00:39.590Z,29.91
2023-03-29T11:01:39.323Z,46.05
2023-03-29T11:02:39.337Z,51.62
2023-03-29T11:03:39.376Z,39.42
2023-03-29T11:04:39.281Z,38.59
2023-03-29T11:05:39.244Z,51.32
2023-03-29T11:06:40.080Z,65.03
2023-03-29T11:07:39.236Z,72.56
2023-03-29T11:08:39.202Z,80.23
2023-03-29T11:09:39.204Z,88.89
2023-03-29T11:10:39.187Z,101.48
2023-03-29T11:11:39.191Z,108.32
2023-03-29T11:12:39.225Z,108.47
2023-03-29T11:13:39.187Z,110.58
2023-03-29T11:14:39.289Z,118.94
2023-03-29T11:15:39.697Z,125.68
2023-03-29T11:16:39.170Z,117.82
2023-03-29T11:17:39.232Z,110.35
2023-03-29T11:18:39.142Z,99.60
2023-03-29T11:19:39.145Z,93.90
2023-03-29T11:20:39.613Z,90.75
2023-03-29T11:21:39.132Z,68.60
2023-03-29T11:22:39.148Z,89.53
2023-03-29T11:23:39.186Z,98.65
2023-03-29T11:24:39.192Z,109.46
2023-03-29T11:25:39.280Z,123.21
2023-03-29T11:26:39.279Z,128.09
2023-03-29T11:27:39.291Z,139.42
2023-03-29T11:28:39.289Z,143.62
2023-03-29T11:29:39.300Z,145.99
2023-03-29T11:30:39.382Z,147.64
2023-03-29T11:31:39.479Z,152.34
2023-03-29T11:32:39.526Z,153.36
2023-03-29T11:33:39.566Z,155.30
2023-03-29T11:34:39.614Z,154.95
2023-03-29T11:35:39.700Z,159.11
2023-03-29T11:36:39.748Z,158.89
2023-03-29T11:37:39.791Z,165.08
2023-03-29T11:38:39.902Z,162.19
2023-03-29T11:39:39.907Z,163.43
2023-03-29T11:40:39.985Z,167.18
2023-03-29T11:41:40.038Z,164.86
2023-03-29T11:42:40.076Z,163.23
2023-03-29T11:43:40.138Z,161.19
2023-03-29T11:44:40.207Z,167.54
2023-03-29T11:45:40.257Z,168.82
2023-03-29T11:46:40.414Z,165.59
2023-03-29T11:47:40.420Z,170.12
2023-03-29T11:48:40.416Z,168.23
2023-03-29T11:49:40.487Z,166.12
2023-03-29T11:50:40.525Z,166.76
2023-03-29T11:51:40.588Z,169.46
2023-03-29T11:52:40.663Z,169.08
2023-03-29T11:53:40.695Z,169.44
2023-03-29T11:54:40.737Z,165.30
2023-03-29T11:55:41.134Z,166.29
2023-03-29T11:56:40.935Z,164.81
2023-03-29T11:57:41.595Z,168.52
2023-03-29T11:58:41.625Z,163.70
2023-03-29T11:59:41.085Z,163.36
2023-03-29T12:00:41.119Z,164.34
2023-03-29T12:01:41.158Z,165.10
2023-03-29T12:02:41.682Z,166.15
2023-03-29T12:03:41.830Z,168.71
2023-03-29T12:04:41.337Z,163.87
2023-03-29T12:05:41.351Z,164.45
2023-03-29T12:06:41.404Z,164.36
2023-03-29T12:07:41.461Z,166.92
2023-03-29T12:08:41.508Z,167.76
2023-03-29T12:09:41.601Z,166.54
2023-03-29T12:10:41.641Z,167.47
2023-03-29T12:11:41.671Z,167.64
2023-03-29T12:12:42.106Z,165.64
2023-03-29T12:13:41.801Z,167.03
2023-03-29T12:14:41.820Z,164.55
2023-03-29T12:15:41.890Z,164.12
2023-03-29T12:16:42.001Z,165.38
2023-03-29T12:17:42.039Z,161.28
2023-03-29T12:18:42.080Z,160.25
2023-03-29T12:19:43.840Z,165.00
2023-03-29T12:20:42.136Z,166.20
2023-03-29T12:21:42.620Z,164.93
2023-03-29T12:22:42.245Z,165.48
2023-03-29T12:23:42.298Z,162.40
2023-03-29T12:24:42.346Z,167.82
2023-03-29T12:25:42.393Z,164.03
2023-03-29T12:26:42.453Z,165.06
2023-03-29T12:27:42.509Z,162.48
2023-03-29T12:28:42.623Z,167.20
2023-03-29T12:29:42.642Z,163.22
2023-03-29T12:30:42.688Z,162.49